createdAt,value
2018-09-20T00:02:08.189Z,99.90
2018-09-20T00:04:35.746Z,99.90
2018-09-20T00:07:03.332Z,99.90
2018-09-20T00:09:30.847Z,99.90
2018-09-20T00:11:58.392Z,99.90
2018-09-20T00:14:25.884Z,99.90
2018-09-20T00:16:53.305Z,99.90
2018-09-20T00:19:20.800Z,99.90
2018-09-20T00:21:48.322Z,99.90
2018-09-20T00:24:15.884Z,99.90
2018-09-20T00:26:43.313Z,99.90
2018-09-20T00:29:10.792Z,99.90
2018-09-20T00:31:38.225Z,99.90
2018-09-20T00:34:05.809Z,99.90
2018-09-20T00:36:33.240Z,99.90
2018-09-20T00:39:01.029Z,99.90
2018-09-20T00:41:28.525Z,99.90
2018-09-20T00:43:55.967Z,99.90
2018-09-20T00:46:24.354Z,99.90
2018-09-20T00:48:53.521Z,99.90
2018-09-20T00:51:21.074Z,99.90
2018-09-20T00:53:48.533Z,99.90
2018-09-20T00:56:16.025Z,99.90
2018-09-20T00:58:43.480Z,99.90
2018-09-20T01:01:10.922Z,99.90
2018-09-20T01:03:41.117Z,99.90
2018-09-20T01:06:08.619Z,99.90
2018-09-20T01:08:36.113Z,99.90
2018-09-20T01:11:03.658Z,99.90
2018-09-20T01:13:31.186Z,99.90
2018-09-20T01:15:58.718Z,99.90
2018-09-20T01:18:26.245Z,99.90
2018-09-20T01:20:53.689Z,99.90
2018-09-20T01:23:21.169Z,99.90
2018-09-20T01:25:48.660Z,99.90
2018-09-20T01:28:16.093Z,99.90
2018-09-20T01:30:43.533Z,99.90
2018-09-20T01:33:11.004Z,99.90
2018-09-20T01:35:38.475Z,99.90
2018-09-20T01:38:06.010Z,99.90
2018-09-20T01:40:33.489Z,99.90
2018-09-20T01:43:00.987Z,99.90
2018-09-20T01:45:28.417Z,99.90
2018-09-20T01:47:55.948Z,99.90
2018-09-20T01:50:23.364Z,99.90
2018-09-20T01:52:50.813Z,99.90
2018-09-20T01:55:24.011Z,99.90
2018-09-20T01:57:51.463Z,99.90
2018-09-20T02:00:21.220Z,99.90
2018-09-20T02:02:48.772Z,99.90
2018-09-20T02:05:16.196Z,99.90
2018-09-20T02:07:52.031Z,99.90
2018-09-20T02:10:19.556Z,99.90
2018-09-20T02:12:47.741Z,99.90
2018-09-20T02:15:15.229Z,99.90
2018-09-20T02:17:42.748Z,99.90
2018-09-20T02:20:10.208Z,99.90
2018-09-20T02:22:37.685Z,99.90
2018-09-20T02:25:05.557Z,99.90
2018-09-20T02:27:33.084Z,99.90
2018-09-20T02:30:00.507Z,99.90
2018-09-20T02:32:28.017Z,99.90
2018-09-20T02:34:55.561Z,99.90
2018-09-20T02:37:23.114Z,99.90
2018-09-20T02:39:50.674Z,99.90
2018-09-20T02:42:18.232Z,99.90
2018-09-20T02:44:45.701Z,99.90
2018-09-20T02:47:15.910Z,99.90
2018-09-20T02:49:43.507Z,99.90
2018-09-20T02:52:10.963Z,99.90
2018-09-20T02:54:39.026Z,99.90
2018-09-20T02:57:06.556Z,99.90
2018-09-20T02:59:34.117Z,99.90
2018-09-20T03:02:01.676Z,99.90
2018-09-20T03:04:29.594Z,99.90
2018-09-20T03:06:57.102Z,99.90
2018-09-20T03:09:24.577Z,99.90
2018-09-20T03:11:52.020Z,99.90
2018-09-20T03:14:19.506Z,99.90
2018-09-20T03:16:47.029Z,99.90
2018-09-20T03:19:14.586Z,99.90
2018-09-20T03:21:42.020Z,99.90
2018-09-20T03:24:09.603Z,99.90
2018-09-20T03:26:37.114Z,99.90
2018-09-20T03:29:04.823Z,99.90
2018-09-20T03:31:32.254Z,99.90
2018-09-20T03:33:59.744Z,99.90
2018-09-20T03:36:27.183Z,99.90
2018-09-20T03:38:54.671Z,99.90
2018-09-20T03:41:22.161Z,99.90
2018-09-20T03:43:49.611Z,99.90
2018-09-20T03:46:17.100Z,99.90
2018-09-20T03:48:44.580Z,99.90
2018-09-20T03:51:12.058Z,99.90
2018-09-20T03:53:39.593Z,99.90
2018-09-20T03:56:07.084Z,99.90
2018-09-20T03:58:34.529Z,99.90
2018-09-20T04:01:02.070Z,99.90
2018-09-20T04:03:29.625Z,99.90
2018-09-20T04:05:57.074Z,99.90
2018-09-20T04:08:24.551Z,99.90
2018-09-20T04:10:51.992Z,99.90
2018-09-20T04:13:19.446Z,99.90
2018-09-20T04:15:50.700Z,99.90
2018-09-20T04:18:18.169Z,99.90
2018-09-20T04:20:45.604Z,99.90
2018-09-20T04:23:13.169Z,99.90
2018-09-20T04:25:46.871Z,99.90
2018-09-20T04:28:14.777Z,99.90
2018-09-20T04:30:42.205Z,99.90
2018-09-20T04:33:09.656Z,99.90
2018-09-20T04:35:37.115Z,99.90
2018-09-20T04:38:04.630Z,99.90
2018-09-20T04:40:32.115Z,99.90
2018-09-20T04:42:59.556Z,99.90
2018-09-20T04:45:26.990Z,99.90
2018-09-20T04:47:54.494Z,99.90
2018-09-20T04:50:21.929Z,99.90
2018-09-20T04:52:49.510Z,99.90
2018-09-20T04:55:16.947Z,99.90
2018-09-20T04:57:44.426Z,99.90
2018-09-20T05:00:11.876Z,99.90
2018-09-20T05:02:39.331Z,99.90
2018-09-20T05:05:06.801Z,99.90
2018-09-20T05:07:34.248Z,99.90
2018-09-20T05:10:01.685Z,99.90
2018-09-20T05:12:29.141Z,99.90
2018-09-20T05:14:56.583Z,99.90
2018-09-20T05:17:24.048Z,99.90
2018-09-20T05:19:51.484Z,99.90
2018-09-20T05:22:18.962Z,99.90
2018-09-20T05:24:46.410Z,99.90
2018-09-20T05:27:13.874Z,99.90
2018-09-20T05:29:41.314Z,99.90
2018-09-20T05:32:08.795Z,99.90
2018-09-20T05:34:36.229Z,99.90
2018-09-20T05:37:03.693Z,99.90
2018-09-20T05:39:31.244Z,99.90
2018-09-20T05:41:58.668Z,99.90
2018-09-20T05:44:26.166Z,99.90
2018-09-20T05:46:53.665Z,99.90
2018-09-20T05:49:21.177Z,99.90
2018-09-20T05:51:48.674Z,99.90
2018-09-20T05:54:16.137Z,99.90
2018-09-20T05:56:43.573Z,99.90
2018-09-20T05:59:11.040Z,99.90
2018-09-20T06:01:38.496Z,99.90
2018-09-20T06:04:06.017Z,99.90
2018-09-20T06:06:33.450Z,99.90
2018-09-20T06:09:01.190Z,99.90
2018-09-20T06:11:28.633Z,99.90
2018-09-20T06:13:56.096Z,99.90
2018-09-20T06:16:23.522Z,99.90
2018-09-20T06:18:51.011Z,99.90
2018-09-20T06:21:18.440Z,99.90
2018-09-20T06:23:45.902Z,99.90
2018-09-20T06:26:13.315Z,99.90
2018-09-20T06:28:40.769Z,99.90
2018-09-20T06:31:08.200Z,99.90
2018-09-20T06:33:35.659Z,99.90
2018-09-20T06:36:03.202Z,99.90
2018-09-20T06:38:30.648Z,99.90
2018-09-20T06:40:58.084Z,99.90
2018-09-20T06:43:25.541Z,99.90
2018-09-20T06:45:53.020Z,99.90
2018-09-20T06:48:20.478Z,99.90
2018-09-20T06:50:47.917Z,99.90
2018-09-20T06:53:15.373Z,99.90
2018-09-20T06:55:42.823Z,99.90
2018-09-20T06:58:10.285Z,99.90
2018-09-20T07:00:37.791Z,99.90
2018-09-20T07:03:05.420Z,99.90
2018-09-20T07:08:06.766Z,99.90
2018-09-20T07:10:34.351Z,99.90
2018-09-20T07:13:01.819Z,99.90
2018-09-20T07:15:29.312Z,99.90
2018-09-20T07:17:56.776Z,99.90
2018-09-20T07:20:24.276Z,99.90
2018-09-20T07:22:51.805Z,99.90
2018-09-20T07:25:19.263Z,99.90
2018-09-20T07:27:46.716Z,99.90
2018-09-20T07:30:14.171Z,99.90
2018-09-20T07:32:41.631Z,99.90
2018-09-20T07:35:09.088Z,99.90
2018-09-20T07:37:36.579Z,99.90
2018-09-20T07:40:04.173Z,99.90
2018-09-20T07:42:31.624Z,99.90
2018-09-20T07:44:59.077Z,99.90
2018-09-20T07:47:26.517Z,99.90
2018-09-20T07:49:53.975Z,99.90
2018-09-20T07:52:21.405Z,99.90
2018-09-20T07:54:48.859Z,99.90
2018-09-20T07:57:16.308Z,99.90
2018-09-20T07:59:43.776Z,99.90
2018-09-20T08:02:11.248Z,99.90
2018-09-20T08:04:38.702Z,99.90
2018-09-20T08:07:06.299Z,99.90
2018-09-20T08:09:33.748Z,99.90
2018-09-20T08:12:01.386Z,99.90
2018-09-20T08:14:28.871Z,99.90
2018-09-20T08:16:56.312Z,99.90
2018-09-20T08:19:23.821Z,99.90
2018-09-20T08:21:51.261Z,99.90
2018-09-20T08:24:18.756Z,99.90
2018-09-20T08:26:46.201Z,99.90
2018-09-20T08:29:13.669Z,99.90
2018-09-20T08:31:41.117Z,99.90
2018-09-20T08:34:08.694Z,99.90
2018-09-20T08:36:36.150Z,99.90
2018-09-20T08:39:07.110Z,99.90
2018-09-20T08:41:34.890Z,99.90
2018-09-20T08:44:02.519Z,99.90
2018-09-20T08:46:30.022Z,99.90
2018-09-20T08:48:57.530Z,99.90
2018-09-20T08:51:24.989Z,99.90
2018-09-20T08:53:52.446Z,99.90
2018-09-20T08:56:19.916Z,99.90
2018-09-20T08:58:47.347Z,99.90
2018-09-20T09:01:14.820Z,99.90
2018-09-20T09:03:42.253Z,99.90
2018-09-20T09:06:09.708Z,99.90
2018-09-20T09:08:37.165Z,99.90
2018-09-20T09:11:04.651Z,99.90
2018-09-20T09:13:32.073Z,99.90
2018-09-20T09:15:59.552Z,99.90
2018-09-20T09:18:26.981Z,99.90
2018-09-20T09:20:54.441Z,99.90
2018-09-20T09:23:21.865Z,99.90
2018-09-20T09:25:49.316Z,99.90
2018-09-20T09:28:16.745Z,99.90
2018-09-20T09:30:44.210Z,99.90
2018-09-20T09:33:11.661Z,99.90
2018-09-20T09:35:39.136Z,99.90
2018-09-20T09:38:06.568Z,99.90
2018-09-20T09:40:34.119Z,99.90
2018-09-20T09:43:01.556Z,99.90
2018-09-20T09:45:29.016Z,99.90
2018-09-20T09:47:56.465Z,99.90
2018-09-20T09:50:23.941Z,99.90
2018-09-20T09:52:51.592Z,99.90
2018-09-20T09:55:19.038Z,99.90
2018-09-20T09:57:54.336Z,99.90
2018-09-20T10:00:29.065Z,99.90
2018-09-20T10:02:57.608Z,99.90
2018-09-20T10:05:25.083Z,99.90
2018-09-20T10:07:52.625Z,99.90
2018-09-20T10:10:20.113Z,99.90
2018-09-20T10:12:47.577Z,99.90
2018-09-20T10:15:32.204Z,99.90
2018-09-20T10:17:59.633Z,99.90
2018-09-20T10:20:27.109Z,99.90
2018-09-20T10:22:54.886Z,99.90
2018-09-20T10:25:22.349Z,99.90
2018-09-20T10:27:49.817Z,99.90
2018-09-20T10:30:17.253Z,99.90
2018-09-20T10:32:44.717Z,99.90
2018-09-20T10:35:12.178Z,99.90
2018-09-20T10:37:39.646Z,99.90
2018-09-20T10:40:07.113Z,99.90
2018-09-20T10:42:34.634Z,99.90
2018-09-20T10:45:02.073Z,99.90
2018-09-20T10:47:29.648Z,99.90
2018-09-20T10:49:57.141Z,99.90
2018-09-20T10:52:24.788Z,99.90
2018-09-20T10:54:52.212Z,99.90
2018-09-20T10:57:19.685Z,99.90
2018-09-20T10:59:47.134Z,99.90
2018-09-20T11:02:14.902Z,99.90
2018-09-20T11:04:42.331Z,99.90
2018-09-20T11:07:09.796Z,99.90
2018-09-20T11:09:37.224Z,99.90
2018-09-20T11:12:05.341Z,99.90
2018-09-20T11:14:32.773Z,99.90
2018-09-20T11:17:00.222Z,99.90
2018-09-20T11:19:27.658Z,99.90
2018-09-20T11:21:55.133Z,99.90
2018-09-20T11:24:22.624Z,99.90
2018-09-20T11:26:50.798Z,99.90
2018-09-20T11:29:18.235Z,99.90
2018-09-20T11:31:45.706Z,99.90
2018-09-20T11:34:13.141Z,99.90
2018-09-20T11:36:41.260Z,99.90
2018-09-20T11:39:10.838Z,99.90
2018-09-20T11:41:38.436Z,99.90
2018-09-20T11:44:05.924Z,99.90
2018-09-20T11:46:33.620Z,99.90
2018-09-20T11:49:01.601Z,99.90
2018-09-20T11:51:29.128Z,99.50
2018-09-20T11:53:56.557Z,99.30
2018-09-20T11:56:24.031Z,99.40
2018-09-20T11:58:51.502Z,99.30
2018-09-20T12:01:19.006Z,99.30
2018-09-20T12:03:46.427Z,98.80
2018-09-20T12:06:13.892Z,98.60
2018-09-20T12:08:41.589Z,97.80
2018-09-20T12:11:09.107Z,98.20
2018-09-20T12:13:37.009Z,98.80
2018-09-20T12:16:04.555Z,98.80
2018-09-20T12:18:32.029Z,98.90
2018-09-20T12:20:59.497Z,98.60
2018-09-20T12:23:26.956Z,98.40
2018-09-20T12:25:54.408Z,98.50
2018-09-20T12:28:21.914Z,98.60
2018-09-20T12:30:49.579Z,98.80
2018-09-20T12:33:17.050Z,98.90
2018-09-20T12:35:44.682Z,98.90
2018-09-20T12:38:12.130Z,98.80
2018-09-20T12:40:39.613Z,99.00
2018-09-20T12:43:07.121Z,98.60
2018-09-20T12:45:34.630Z,98.60
2018-09-20T12:48:02.088Z,97.70
2018-09-20T12:50:29.645Z,97.40
2018-09-20T12:52:57.106Z,97.30
2018-09-20T12:55:30.084Z,97.20
2018-09-20T12:57:57.552Z,97.10
2018-09-20T13:00:26.991Z,97.20
2018-09-20T13:02:54.508Z,97.30
2018-09-20T13:05:22.016Z,96.60
2018-09-20T13:07:49.509Z,96.40
2018-09-20T13:10:16.933Z,96.90
2018-09-20T13:12:44.420Z,96.20
2018-09-20T13:15:11.858Z,95.80
2018-09-20T13:17:39.450Z,96.20
2018-09-20T13:20:07.048Z,96.00
2018-09-20T13:22:34.468Z,95.50
2018-09-20T13:25:01.908Z,95.60
2018-09-20T13:27:29.380Z,95.60
2018-09-20T13:29:56.952Z,95.40
2018-09-20T13:32:24.416Z,94.80
2018-09-20T13:34:52.131Z,94.80
2018-09-20T13:37:19.854Z,94.70
2018-09-20T13:39:47.248Z,94.70
2018-09-20T13:42:14.892Z,94.60
2018-09-20T13:44:42.412Z,94.50
2018-09-20T13:47:09.919Z,94.20
2018-09-20T13:49:37.514Z,94.60
2018-09-20T13:52:05.746Z,94.60
2018-09-20T13:54:33.218Z,94.20
2018-09-20T13:57:00.677Z,93.90
2018-09-20T13:59:28.263Z,94.50
2018-09-20T14:01:55.720Z,94.00
2018-09-20T14:04:23.196Z,94.00
2018-09-20T14:06:50.735Z,94.00
2018-09-20T14:09:18.201Z,94.00
2018-09-20T14:11:45.666Z,93.90
2018-09-20T14:14:13.173Z,94.20
2018-09-20T14:16:40.640Z,94.20
2018-09-20T14:19:08.225Z,94.50
2018-09-20T14:21:35.991Z,94.30
2018-09-20T14:24:03.511Z,94.60
2018-09-20T14:26:31.004Z,94.20
2018-09-20T14:28:58.528Z,94.30
2018-09-20T14:31:26.021Z,93.90
2018-09-20T14:33:53.492Z,93.70
2018-09-20T14:36:20.948Z,93.40
2018-09-20T14:38:48.592Z,92.90
2018-09-20T14:41:16.068Z,92.40
2018-09-20T14:43:43.548Z,91.70
2018-09-20T14:46:11.039Z,91.60
2018-09-20T14:48:38.527Z,91.50
2018-09-20T14:51:06.517Z,91.00
2018-09-20T14:53:34.021Z,90.90
2018-09-20T14:56:01.492Z,91.20
2018-09-20T14:58:33.220Z,91.40
2018-09-20T15:01:01.342Z,90.80
2018-09-20T15:03:28.801Z,91.10
2018-09-20T15:05:56.345Z,90.80
2018-09-20T15:08:23.844Z,89.60
2018-09-20T15:10:51.376Z,88.40
2018-09-20T15:13:18.808Z,89.50
2018-09-20T15:15:46.267Z,90.80
2018-09-20T15:18:13.718Z,89.80
2018-09-20T15:20:41.204Z,90.20
2018-09-20T15:23:08.660Z,90.10
2018-09-20T15:25:36.344Z,88.30
2018-09-20T15:28:03.881Z,88.00
2018-09-20T15:30:31.365Z,86.80
2018-09-20T15:32:58.823Z,85.30
2018-09-20T15:35:26.439Z,86.10
2018-09-20T15:37:53.891Z,85.30
2018-09-20T15:40:21.372Z,84.80
2018-09-20T15:42:48.843Z,83.80
2018-09-20T15:45:16.330Z,83.10
2018-09-20T15:47:43.827Z,83.80
2018-09-20T15:50:11.375Z,83.10
2018-09-20T15:52:39.574Z,84.50
2018-09-20T15:55:07.053Z,82.20
2018-09-20T15:57:34.529Z,83.10
2018-09-20T16:00:01.998Z,82.40
2018-09-20T16:02:29.586Z,84.80
2018-09-20T16:04:57.041Z,85.80
2018-09-20T16:07:24.603Z,87.00
2018-09-20T16:09:52.085Z,87.00
2018-09-20T16:12:19.577Z,87.20
2018-09-20T16:14:47.068Z,86.20
2018-09-20T16:17:14.510Z,86.70
2018-09-20T16:19:42.015Z,84.90
2018-09-20T16:22:09.547Z,85.00
2018-09-20T16:24:37.050Z,85.90
2018-09-20T16:27:04.504Z,85.70
2018-09-20T16:29:39.593Z,85.60
2018-09-20T16:34:31.339Z,86.30
2018-09-20T16:37:05.829Z,86.40
2018-09-20T16:39:35.634Z,87.40
2018-09-20T16:42:04.080Z,88.30
2018-09-20T16:44:31.561Z,88.50
2018-09-20T16:46:59.054Z,88.00
2018-09-20T16:49:26.621Z,88.60
2018-09-20T16:51:54.077Z,89.50
2018-09-20T16:54:21.571Z,90.00
2018-09-20T16:56:49.028Z,90.70
2018-09-20T16:59:16.527Z,91.00
2018-09-20T17:01:43.969Z,91.10
2018-09-20T17:04:11.465Z,91.10
2018-09-20T17:06:39.093Z,91.20
2018-09-20T17:09:07.765Z,91.80
2018-09-20T17:11:35.268Z,92.00
2018-09-20T17:14:02.765Z,92.20
2018-09-20T17:16:30.298Z,92.50
2018-09-20T17:18:57.759Z,93.30
2018-09-20T17:21:25.241Z,93.70
2018-09-20T17:23:52.699Z,94.70
2018-09-20T17:26:20.212Z,95.00
2018-09-20T17:28:47.707Z,96.00
2018-09-20T17:31:15.180Z,96.20
2018-09-20T17:33:42.683Z,96.70
2018-09-20T17:36:10.337Z,97.00
2018-09-20T17:38:38.457Z,96.90
2018-09-20T17:41:09.129Z,97.30
2018-09-20T17:43:41.844Z,97.50
2018-09-20T17:46:09.410Z,97.60
2018-09-20T17:48:37.082Z,98.00
2018-09-20T17:51:05.123Z,97.80
2018-09-20T17:53:33.108Z,98.10
2018-09-20T17:56:01.612Z,98.40
2018-09-20T17:58:29.641Z,98.30
2018-09-20T18:00:57.173Z,98.10
2018-09-20T18:03:24.623Z,98.00
2018-09-20T18:05:52.126Z,98.20
2018-09-20T18:08:19.610Z,98.50
2018-09-20T18:10:47.072Z,98.40
2018-09-20T18:13:14.538Z,98.30
2018-09-20T18:15:42.012Z,98.40
2018-09-20T18:18:09.618Z,98.40
2018-09-20T18:20:37.057Z,98.40
2018-09-20T18:23:04.615Z,98.50
2018-09-20T18:25:32.090Z,98.60
2018-09-20T18:27:59.885Z,98.70
2018-09-20T18:30:27.378Z,99.00
2018-09-20T18:32:54.845Z,99.20
2018-09-20T18:35:22.364Z,99.10
2018-09-20T18:37:49.886Z,99.10
2018-09-20T18:40:17.361Z,99.40
2018-09-20T18:43:20.073Z,99.60
2018-09-20T18:45:47.816Z,99.60
2018-09-20T18:48:15.545Z,99.40
2018-09-20T18:50:43.044Z,99.60
2018-09-20T18:53:10.577Z,99.90
2018-09-20T18:55:38.068Z,99.90
2018-09-20T18:58:05.538Z,99.90
2018-09-20T19:00:34.021Z,99.70
2018-09-20T19:03:01.484Z,99.90
2018-09-20T19:05:28.990Z,99.90
2018-09-20T19:07:56.426Z,99.90
2018-09-20T19:10:23.906Z,99.90
2018-09-20T19:12:51.433Z,99.90
2018-09-20T19:15:18.990Z,99.90
2018-09-20T19:17:46.458Z,99.90
2018-09-20T19:20:13.932Z,99.90
2018-09-20T19:22:41.401Z,99.90
2018-09-20T19:25:08.918Z,99.90
2018-09-20T19:27:36.454Z,99.90
2018-09-20T19:30:03.906Z,99.90
2018-09-20T19:32:31.385Z,99.90
2018-09-20T19:34:58.828Z,99.90
2018-09-20T19:37:26.742Z,99.90
2018-09-20T19:39:54.385Z,99.90
2018-09-20T19:42:22.814Z,99.90
2018-09-20T19:44:50.317Z,99.90
2018-09-20T19:47:17.852Z,99.90
2018-09-20T19:49:45.430Z,99.90
2018-09-20T19:52:13.055Z,99.90
2018-09-20T19:54:40.657Z,99.90
2018-09-20T19:57:08.102Z,99.90
2018-09-20T19:59:35.574Z,99.90
2018-09-20T20:02:03.113Z,99.90
2018-09-20T20:04:30.609Z,99.90
2018-09-20T20:06:58.114Z,99.90
2018-09-20T20:09:25.700Z,99.90
2018-09-20T20:11:53.223Z,99.90
2018-09-20T20:14:20.729Z,99.90
2018-09-20T20:16:48.270Z,99.90
2018-09-20T20:19:15.830Z,99.90
2018-09-20T20:21:43.316Z,99.90
2018-09-20T20:24:10.764Z,99.90
2018-09-20T20:26:38.246Z,99.90
2018-09-20T20:29:05.750Z,99.90
2018-09-20T20:31:33.262Z,99.90
2018-09-20T20:34:00.710Z,99.90
2018-09-20T20:36:28.172Z,99.90
2018-09-20T20:38:56.009Z,99.90
2018-09-20T20:41:23.553Z,99.90
2018-09-20T20:43:51.213Z,99.90
2018-09-20T20:46:18.738Z,99.90
2018-09-20T20:48:46.553Z,99.90
2018-09-20T20:51:14.494Z,99.90
2018-09-20T20:53:41.966Z,99.90
2018-09-20T20:56:09.464Z,99.90
2018-09-20T20:58:37.051Z,99.90
2018-09-20T21:01:04.531Z,99.90
2018-09-20T21:03:32.000Z,99.90
2018-09-20T21:05:59.449Z,99.90
2018-09-20T21:08:26.909Z,99.90
2018-09-20T21:10:54.370Z,99.90
2018-09-20T21:13:21.864Z,99.90
2018-09-20T21:15:49.321Z,99.90
2018-09-20T21:18:16.818Z,99.90
2018-09-20T21:20:44.295Z,99.90
2018-09-20T21:23:11.828Z,99.90
2018-09-20T21:25:39.262Z,99.90
2018-09-20T21:28:06.969Z,99.90
2018-09-20T21:30:34.415Z,99.90
2018-09-20T21:33:01.890Z,99.90
2018-09-20T21:35:29.366Z,99.90
2018-09-20T21:37:56.840Z,99.90
2018-09-20T21:40:24.333Z,99.90
2018-09-20T21:42:51.818Z,99.90
2018-09-20T21:45:19.276Z,99.90
2018-09-20T21:47:46.781Z,99.90
2018-09-20T21:50:14.303Z,99.90
2018-09-20T21:52:41.793Z,99.90
2018-09-20T21:55:09.298Z,99.90
2018-09-20T21:57:36.776Z,99.90
2018-09-20T22:00:06.467Z,99.90
2018-09-20T22:02:39.675Z,99.90
2018-09-20T22:05:07.174Z,99.90
2018-09-20T22:07:34.658Z,99.90
2018-09-20T22:10:02.094Z,99.90
2018-09-20T22:12:29.569Z,99.90
2018-09-20T22:14:57.041Z,99.90
2018-09-20T22:17:24.705Z,99.90
2018-09-20T22:19:52.188Z,99.90
2018-09-20T22:22:19.641Z,99.90
2018-09-20T22:24:47.125Z,99.90
2018-09-20T22:27:14.562Z,99.90
2018-09-20T22:29:42.080Z,99.90
2018-09-20T22:32:09.533Z,99.90
2018-09-20T22:34:36.989Z,99.90
2018-09-20T22:37:04.528Z,99.90
2018-09-20T22:39:32.171Z,99.90
2018-09-20T22:41:59.633Z,99.90
2018-09-20T22:44:27.120Z,99.90
2018-09-20T22:46:54.545Z,99.90
2018-09-20T22:49:22.053Z,99.90
2018-09-20T22:51:49.524Z,99.90
2018-09-20T22:54:17.028Z,99.90
2018-09-20T22:56:44.521Z,99.90
2018-09-20T22:59:11.990Z,99.90
2018-09-20T23:01:40.780Z,99.90
2018-09-20T23:04:08.294Z,99.90
2018-09-20T23:06:35.748Z,99.90
2018-09-20T23:09:04.846Z,99.90
2018-09-20T23:11:32.337Z,99.90
2018-09-20T23:13:59.857Z,99.90
2018-09-20T23:16:27.350Z,99.90
2018-09-20T23:18:54.905Z,99.90
2018-09-20T23:21:22.401Z,99.90
2018-09-20T23:23:49.855Z,99.90
2018-09-20T23:26:17.316Z,99.90
2018-09-20T23:28:44.798Z,99.90
2018-09-20T23:31:12.246Z,99.90
2018-09-20T23:33:39.720Z,99.90
2018-09-20T23:36:07.173Z,99.90
2018-09-20T23:38:34.665Z,99.90
2018-09-20T23:41:02.160Z,99.90
2018-09-20T23:43:29.680Z,99.90
2018-09-20T23:45:57.157Z,99.90
2018-09-20T23:48:24.614Z,99.90
2018-09-20T23:50:52.092Z,99.90
2018-09-20T23:53:19.521Z,99.90
2018-09-20T23:55:47.003Z,99.90
2018-09-20T23:58:14.446Z,99.90
